Zeybe — TCMG4 — position and weather

sailwx.info

Track history (hours):
 
Tides and Currents Weather Stations Pressure Air Temp Water Temp Dewpoint Dewpoint Depression Visibility Wind Speed Wind Dir Waves Ship Positions

Zeybe

Last reported at 2018-Feb-18 17:54 UTC. Time now 2018-Feb-24 22:16 UTC.
Position N 36°07' E 032°04'.

Length 70 m; draft 5.2 m.

Type: Ship. MMSI: 271042650.

Date/timePositionNaut miles runAvg speedWind from/ knotsBaromVisibWave heightAir tempDewpointWater temp
2018-Feb-18 17:54N 36°07' E 032°04'3 7.6
2018-Feb-18 17:30N 36°07' E 032°01'4 7.6
2018-Feb-18 17:00N 36°08' E 031°56'4 7.7
2018-Feb-18 16:30N 36°09' E 031°51'4 7.8
2018-Feb-18 16:00N 36°09' E 031°46'4 8.0
2018-Feb-18 15:30N 36°10' E 031°42'4 8.0
2018-Feb-18 15:00N 36°10' E 031°37'4 7.9
2018-Feb-18 14:30N 36°11' E 031°32'4 8.1
2018-Feb-18 14:00N 36°12' E 031°27'4 8.0
2018-Feb-18 13:29N 36°13' E 031°22'5 7.9
2018-Feb-18 12:54N 36°14' E 031°16'4 7.6
2018-Feb-18 12:24N 36°15' E 031°12'5 7.3
2018-Feb-18 11:45N 36°16' E 031°06'3 7.0
2018-Feb-18 11:16N 36°17' E 031°02'3 6.6
2018-Feb-18 10:51N 36°17' E 030°59'3 6.8
2018-Feb-18 10:23N 36°18' E 030°55'3 6.8
2018-Feb-18 09:59N 36°18' E 030°51'6 6.9
2018-Feb-18 09:10N 36°19' E 030°45'2 6.6
2018-Feb-18 08:48N 36°19' E 030°42'2 7.0
2018-Feb-18 08:29N 36°19' E 030°39'4 7.7
2018-Feb-18 07:59N 36°19' E 030°34'3 0.1
2018-Feb-17 13:03N 36°18' E 030°31'0 7.7
2018-Feb-17 13:00N 36°18' E 030°31'4 7.8
2018-Feb-17 12:30N 36°15' E 030°35'5 3.8
2018-Feb-17 11:09N 36°10' E 030°33'1 7.4
2018-Feb-17 10:59N 36°10' E 030°31'4 7.4
2018-Feb-17 10:29N 36°09' E 030°27'  
Track history (hours):
 
Tides and Currents Weather Stations Pressure Air Temp Water Temp Dewpoint Dewpoint Depression Visibility Wind Speed Wind Dir Waves Ship Positions

Zeybe

Last reported at 2018-Feb-18 17:54 UTC. Time now 2018-Feb-24 22:16 UTC.
Position N 36°07' E 032°04'.

Length 70 m; draft 5.2 m.

Type: Ship. MMSI: 271042650.

Date/timePositionNaut miles runAvg speedWind from/ knotsBaromVisibWave heightAir tempDewpointWater temp
2018-Feb-18 17:54N 36°07' E 032°04'3 7.6
2018-Feb-18 17:30N 36°07' E 032°01'4 7.6
2018-Feb-18 17:00N 36°08' E 031°56'4 7.7
2018-Feb-18 16:30N 36°09' E 031°51'4 7.8
2018-Feb-18 16:00N 36°09' E 031°46'4 8.0
2018-Feb-18 15:30N 36°10' E 031°42'4 8.0
2018-Feb-18 15:00N 36°10' E 031°37'4 7.9
2018-Feb-18 14:30N 36°11' E 031°32'4 8.1
2018-Feb-18 14:00N 36°12' E 031°27'4 8.0
2018-Feb-18 13:29N 36°13' E 031°22'5 7.9
2018-Feb-18 12:54N 36°14' E 031°16'4 7.6
2018-Feb-18 12:24N 36°15' E 031°12'5 7.3
2018-Feb-18 11:45N 36°16' E 031°06'3 7.0
2018-Feb-18 11:16N 36°17' E 031°02'3 6.6
2018-Feb-18 10:51N 36°17' E 030°59'3 6.8
2018-Feb-18 10:23N 36°18' E 030°55'3 6.8
2018-Feb-18 09:59N 36°18' E 030°51'6 6.9
2018-Feb-18 09:10N 36°19' E 030°45'2 6.6
2018-Feb-18 08:48N 36°19' E 030°42'2 7.0
2018-Feb-18 08:29N 36°19' E 030°39'4 7.7
2018-Feb-18 07:59N 36°19' E 030°34'3 0.1
2018-Feb-17 13:03N 36°18' E 030°31'0 7.7
2018-Feb-17 13:00N 36°18' E 030°31'4 7.8
2018-Feb-17 12:30N 36°15' E 030°35'5 3.8
2018-Feb-17 11:09N 36°10' E 030°33'1 7.4
2018-Feb-17 10:59N 36°10' E 030°31'4 7.4
2018-Feb-17 10:29N 36°09' E 030°27'  

Dump ship's entire track history